Foules, Louisiana
Current Conditions -  °F | °C
As of 6:55 PM on Monday 26 Jan 2015 (Local Time) from KHEZ Reporting Station
Clear Clear  
Wind Chill: 44°   Ceiling: Unl
Heat Index: 46°   Visibility: 10mi
Dew Point: 34°   Wind: 5mph
Humidity: 62%   Direction: 200°SSW
Pressure: 30.08"   Gusts: NA
Location:  31.828°N, 91.4836°W
Report Text: KHEZ 270055Z AUTO 20004KT 10SM CLR 08/01 A3008 RMK AO1
Loading
Personal Weather Stations






























Interactive Weather Map New forecast layout! Learn more

10-Day Weather Forecast

Advertisements
Track Severe Weather on mobile